sensor_id;sensor_type;location;lat;lon;timestamp;pressure;altitude;pressure_sealevel;temperature;humidity
32081;BME280;18593;51.426;7.030;2023-03-21T00:01:17;100681.22;;;10.96;65.84
32081;BME280;18593;51.426;7.030;2023-03-21T00:03:44;100673.22;;;10.96;65.68
32081;BME280;18593;51.426;7.030;2023-03-21T00:06:13;100669.72;;;10.96;65.38
32081;BME280;18593;51.426;7.030;2023-03-21T00:08:40;100674.03;;;10.97;65.23
32081;BME280;18593;51.426;7.030;2023-03-21T00:11:10;100667.06;;;10.96;64.73
32081;BME280;18593;51.426;7.030;2023-03-21T00:13:39;100672.41;;;10.96;64.54
32081;BME280;18593;51.426;7.030;2023-03-21T00:16:09;100674.03;;;10.97;64.99
32081;BME280;18593;51.426;7.030;2023-03-21T00:18:40;100663.38;;;10.97;65.20
32081;BME280;18593;51.426;7.030;2023-03-21T00:21:09;100668.69;;;10.97;65.08
32081;BME280;18593;51.426;7.030;2023-03-21T00:23:37;100665.22;;;10.96;65.05
32081;BME280;18593;51.426;7.030;2023-03-21T00:26:04;100658.03;;;10.97;65.25
32081;BME280;18593;51.426;7.030;2023-03-21T00:28:34;100658.84;;;10.97;65.19
32081;BME280;18593;51.426;7.030;2023-03-21T00:31:03;100647.34;;;10.97;64.44
32081;BME280;18593;51.426;7.030;2023-03-21T00:33:30;100651.88;;;10.96;63.89
32081;BME280;18593;51.426;7.030;2023-03-21T00:35:57;100646.75;;;10.95;64.15
32081;BME280;18593;51.426;7.030;2023-03-21T00:38:25;100645.72;;;10.96;64.26
32081;BME280;18593;51.426;7.030;2023-03-21T00:40:53;100633.41;;;10.95;64.33
32081;BME280;18593;51.426;7.030;2023-03-21T00:43:20;100637.94;;;10.94;63.79
32081;BME280;18593;51.426;7.030;2023-03-21T00:45:49;100638.75;;;10.95;63.60
32081;BME280;18593;51.426;7.030;2023-03-21T00:48:18;100628.28;;;10.93;63.37
32081;BME280;18593;51.426;7.030;2023-03-21T00:50:45;100633.00;;;10.91;62.62
32081;BME280;18593;51.426;7.030;2023-03-21T00:53:13;100620.28;;;10.93;63.22
32081;BME280;18593;51.426;7.030;2023-03-21T00:55:41;100631.78;;;10.94;63.67
32081;BME280;18593;51.426;7.030;2023-03-21T00:58:08;100625.63;;;10.93;63.38
32081;BME280;18593;51.426;7.030;2023-03-21T01:00:35;100624.78;;;10.93;63.39
32081;BME280;18593;51.426;7.030;2023-03-21T01:03:03;100623.16;;;10.92;62.95
32081;BME280;18593;51.426;7.030;2023-03-21T01:05:36;100618.66;;;10.86;63.08
32081;BME280;18593;51.426;7.030;2023-03-21T01:08:21;100621.31;;;10.86;63.25
32081;BME280;18593;51.426;7.030;2023-03-21T01:10:50;100617.00;;;10.78;63.61
32081;BME280;18593;51.426;7.030;2023-03-21T01:13:18;100612.13;;;10.75;63.93
32081;BME280;18593;51.426;7.030;2023-03-21T01:15:47;100615.59;;;10.75;64.47
32081;BME280;18593;51.426;7.030;2023-03-21T01:18:16;100611.72;;;10.71;64.44
32081;BME280;18593;51.426;7.030;2023-03-21T01:20:45;100608.81;;;10.73;64.56
32081;BME280;18593;51.426;7.030;2023-03-21T01:23:14;100607.59;;;10.75;64.87
32081;BME280;18593;51.426;7.030;2023-03-21T01:25:41;100606.56;;;10.76;64.90
32081;BME280;18593;51.426;7.030;2023-03-21T01:28:08;100599.38;;;10.77;64.87
32081;BME280;18593;51.426;7.030;2023-03-21T01:30:36;100602.84;;;10.77;64.78
32081;BME280;18593;51.426;7.030;2023-03-21T01:33:03;100603.06;;;10.76;64.64
32081;BME280;18593;51.426;7.030;2023-03-21T01:35:30;100604.72;;;10.77;64.60
32081;BME280;18593;51.426;7.030;2023-03-21T01:37:59;100610.88;;;10.77;64.76
32081;BME280;18593;51.426;7.030;2023-03-21T01:40:26;100604.53;;;10.78;64.74
32081;BME280;18593;51.426;7.030;2023-03-21T01:43:10;100594.66;;;10.79;65.06
32081;BME280;18593;51.426;7.030;2023-03-21T01:46:16;100597.34;;;10.79;65.24
32081;BME280;18593;51.426;7.030;2023-03-21T01:49:08;100598.97;;;10.80;65.14
32081;BME280;18593;51.426;7.030;2023-03-21T01:51:38;100593.63;;;10.80;65.21
32081;BME280;18593;51.426;7.030;2023-03-21T01:54:09;100592.81;;;10.79;64.98
32081;BME280;18593;51.426;7.030;2023-03-21T01:56:39;100591.78;;;10.80;65.22
32081;BME280;18593;51.426;7.030;2023-03-21T01:59:15;100586.44;;;10.80;65.02
32081;BME280;18593;51.426;7.030;2023-03-21T02:02:06;100576.59;;;10.81;65.06
32081;BME280;18593;51.426;7.030;2023-03-21T02:04:42;100580.88;;;10.82;65.10
32081;BME280;18593;51.426;7.030;2023-03-21T02:07:23;100574.53;;;10.83;64.81
32081;BME280;18593;51.426;7.030;2023-03-21T02:10:00;100579.03;;;10.82;64.99
32081;BME280;18593;51.426;7.030;2023-03-21T02:12:30;100571.84;;;10.83;64.96
32081;BME280;18593;51.426;7.030;2023-03-21T02:14:57;100581.09;;;10.80;64.66
32081;BME280;18593;51.426;7.030;2023-03-21T02:17:34;100573.09;;;10.80;64.77
32081;BME280;18593;51.426;7.030;2023-03-21T02:26:15;100561.19;;;10.83;65.21
32081;BME280;18593;51.426;7.030;2023-03-21T02:28:46;100562.22;;;10.82;64.82
32081;BME280;18593;51.426;7.030;2023-03-21T02:31:27;100562.25;;;10.75;65.46
32081;BME280;18593;51.426;7.030;2023-03-21T02:37:18;100559.59;;;10.69;66.80
32081;BME280;18593;51.426;7.030;2023-03-21T02:39:54;100562.28;;;10.69;67.62
32081;BME280;18593;51.426;7.030;2023-03-21T02:42:26;100566.97;;;10.67;67.60
32081;BME280;18593;51.426;7.030;2023-03-21T02:44:57;100566.56;;;10.70;67.78
32081;BME280;18593;51.426;7.030;2023-03-21T02:47:29;100560.22;;;10.71;67.77
32081;BME280;18593;51.426;7.030;2023-03-21T02:50:03;100560.00;;;10.72;67.71
32081;BME280;18593;51.426;7.030;2023-03-21T02:52:33;100554.47;;;10.74;68.01
32081;BME280;18593;51.426;7.030;2023-03-21T02:55:02;100554.25;;;10.75;67.87
32081;BME280;18593;51.426;7.030;2023-03-21T02:57:41;100539.88;;;10.76;67.78
32081;BME280;18593;51.426;7.030;2023-03-21T03:00:12;100539.66;;;10.78;67.69
32081;BME280;18593;51.426;7.030;2023-03-21T03:02:41;100541.09;;;10.80;67.67
32081;BME280;18593;51.426;7.030;2023-03-21T03:05:13;100538.19;;;10.82;67.80
32081;BME280;18593;51.426;7.030;2023-03-21T03:07:46;100529.16;;;10.83;67.73
32081;BME280;18593;51.426;7.030;2023-03-21T03:10:24;100528.16;;;10.84;67.68
32081;BME280;18593;51.426;7.030;2023-03-21T03:13:01;100530.59;;;10.86;67.72
32081;BME280;18593;51.426;7.030;2023-03-21T03:15:34;100526.09;;;10.86;67.75
32081;BME280;18593;51.426;7.030;2023-03-21T03:18:10;100536.53;;;10.88;67.79
32081;BME280;18593;51.426;7.030;2023-03-21T03:20:44;100525.03;;;10.87;67.68
32081;BME280;18593;51.426;7.030;2023-03-21T03:23:23;100528.53;;;10.88;67.74
32081;BME280;18593;51.426;7.030;2023-03-21T03:25:53;100524.00;;;10.88;67.80
32081;BME280;18593;51.426;7.030;2023-03-21T03:28:23;100531.59;;;10.91;67.65
32081;BME280;18593;51.426;7.030;2023-03-21T03:30:52;100520.13;;;10.91;67.72
32081;BME280;18593;51.426;7.030;2023-03-21T03:33:24;100519.91;;;10.92;67.80
32081;BME280;18593;51.426;7.030;2023-03-21T03:35:52;100511.88;;;10.92;67.71
32081;BME280;18593;51.426;7.030;2023-03-21T03:38:22;100509.22;;;10.92;67.94
32081;BME280;18593;51.426;7.030;2023-03-21T03:40:52;100510.88;;;10.93;67.83
32081;BME280;18593;51.426;7.030;2023-03-21T03:43:39;100509.03;;;10.94;67.80
32081;BME280;18593;51.426;7.030;2023-03-21T03:46:10;100505.31;;;10.95;67.85
32081;BME280;18593;51.426;7.030;2023-03-21T03:48:42;100509.03;;;10.94;67.68
32081;BME280;18593;51.426;7.030;2023-03-21T03:51:14;100509.03;;;10.94;67.70
32081;BME280;18593;51.426;7.030;2023-03-21T03:54:03;100502.88;;;10.93;67.72
32081;BME280;18593;51.426;7.030;2023-03-21T03:56:32;100499.38;;;10.93;67.98
32081;BME280;18593;51.426;7.030;2023-03-21T03:59:00;100498.53;;;10.92;67.78
32081;BME280;18593;51.426;7.030;2023-03-21T04:01:47;100494.25;;;10.91;67.71
32081;BME280;18593;51.426;7.030;2023-03-21T04:04:14;100498.78;;;10.91;67.72
32081;BME280;18593;51.426;7.030;2023-03-21T04:06:43;100496.91;;;10.91;67.64
32081;BME280;18593;51.426;7.030;2023-03-21T04:09:19;100497.13;;;10.90;67.81
32081;BME280;18593;51.426;7.030;2023-03-21T04:11:46;100490.16;;;10.89;67.70
32081;BME280;18593;51.426;7.030;2023-03-21T04:14:13;100493.84;;;10.88;67.75
32081;BME280;18593;51.426;7.030;2023-03-21T04:16:41;100492.22;;;10.87;67.63
32081;BME280;18593;51.426;7.030;2023-03-21T04:19:08;100486.88;;;10.87;67.57
32081;BME280;18593;51.426;7.030;2023-03-21T04:21:36;100487.91;;;10.86;67.54
32081;BME280;18593;51.426;7.030;2023-03-21T04:24:03;100484.44;;;10.85;67.63
32081;BME280;18593;51.426;7.030;2023-03-21T04:26:33;100481.75;;;10.85;67.51
32081;BME280;18593;51.426;7.030;2023-03-21T04:29:19;100487.09;;;10.85;67.46
32081;BME280;18593;51.426;7.030;2023-03-21T04:32:06;100483.63;;;10.85;67.47
32081;BME280;18593;51.426;7.030;2023-03-21T04:34:42;100481.75;;;10.85;67.42
32081;BME280;18593;51.426;7.030;2023-03-21T04:37:16;100483.63;;;10.85;67.47
32081;BME280;18593;51.426;7.030;2023-03-21T04:39:44;100484.44;;;10.85;67.46
32081;BME280;18593;51.426;7.030;2023-03-21T04:42:14;100479.91;;;10.86;67.49
32081;BME280;18593;51.426;7.030;2023-03-21T04:44:43;100476.22;;;10.87;67.56
32081;BME280;18593;51.426;7.030;2023-03-21T04:47:10;100481.53;;;10.87;67.58
32081;BME280;18593;51.426;7.030;2023-03-21T04:49:38;100480.50;;;10.88;67.70
32081;BME280;18593;51.426;7.030;2023-03-21T04:52:05;100485.84;;;10.88;67.37
32081;BME280;18593;51.426;7.030;2023-03-21T04:54:32;100477.84;;;10.88;67.36
32081;BME280;18593;51.426;7.030;2023-03-21T04:56:59;100476.22;;;10.87;67.08
32081;BME280;18593;51.426;7.030;2023-03-21T04:59:28;100470.88;;;10.87;67.09
32081;BME280;18593;51.426;7.030;2023-03-21T05:01:55;100467.16;;;10.88;67.19
32081;BME280;18593;51.426;7.030;2023-03-21T05:04:23;100472.50;;;10.88;67.10
32081;BME280;18593;51.426;7.030;2023-03-21T05:06:51;100467.38;;;10.86;67.10
32081;BME280;18593;51.426;7.030;2023-03-21T05:09:18;100470.88;;;10.87;66.88
32081;BME280;18593;51.426;7.030;2023-03-21T05:11:47;100469.84;;;10.88;67.09
32081;BME280;18593;51.426;7.030;2023-03-21T05:14:17;100467.16;;;10.88;66.93
32081;BME280;18593;51.426;7.030;2023-03-21T05:16:46;100467.16;;;10.88;67.01
32081;BME280;18593;51.426;7.030;2023-03-21T05:19:18;100469.00;;;10.87;66.75
32081;BME280;18593;51.426;7.030;2023-03-21T05:21:48;100464.50;;;10.88;66.86
32081;BME280;18593;51.426;7.030;2023-03-21T05:24:24;100464.72;;;10.86;66.80
32081;BME280;18593;51.426;7.030;2023-03-21T05:26:52;100460.19;;;10.87;66.87
32081;BME280;18593;51.426;7.030;2023-03-21T05:29:22;100454.88;;;10.87;67.10
32081;BME280;18593;51.426;7.030;2023-03-21T05:31:59;100466.34;;;10.87;67.24
32081;BME280;18593;51.426;7.030;2023-03-21T05:34:27;100463.69;;;10.87;67.12
32081;BME280;18593;51.426;7.030;2023-03-21T05:36:54;100458.34;;;10.87;67.25
32081;BME280;18593;51.426;7.030;2023-03-21T05:39:24;100462.88;;;10.87;67.33
32081;BME280;18593;51.426;7.030;2023-03-21T05:42:10;100454.88;;;10.87;67.30
32081;BME280;18593;51.426;7.030;2023-03-21T05:44:37;100452.19;;;10.87;67.34
32081;BME280;18593;51.426;7.030;2023-03-21T05:47:07;100456.50;;;10.88;67.26
32081;BME280;18593;51.426;7.030;2023-03-21T05:49:43;100453.81;;;10.88;67.52
32081;BME280;18593;51.426;7.030;2023-03-21T05:52:10;100457.31;;;10.88;67.47
32081;BME280;18593;51.426;7.030;2023-03-21T05:54:38;100460.59;;;10.90;67.62
32081;BME280;18593;51.426;7.030;2023-03-21T05:57:08;100458.75;;;10.91;67.51
32081;BME280;18593;51.426;7.030;2023-03-21T05:59:55;100448.28;;;10.89;67.45
32081;BME280;18593;51.426;7.030;2023-03-21T06:02:23;100467.56;;;10.91;67.47
32081;BME280;18593;51.426;7.030;2023-03-21T06:04:51;100459.78;;;10.90;67.50
32081;BME280;18593;51.426;7.030;2023-03-21T06:07:20;100457.94;;;10.90;67.69
32081;BME280;18593;51.426;7.030;2023-03-21T06:09:48;100462.22;;;10.91;67.77
32081;BME280;18593;51.426;7.030;2023-03-21T06:12:15;100466.75;;;10.91;67.66
32081;BME280;18593;51.426;7.030;2023-03-21T06:15:17;100464.91;;;10.91;67.58
32081;BME280;18593;51.426;7.030;2023-03-21T06:17:57;100464.91;;;10.91;67.85
32081;BME280;18593;51.426;7.030;2023-03-21T06:20:25;100462.22;;;10.91;67.67
32081;BME280;18593;51.426;7.030;2023-03-21T06:22:56;100456.91;;;10.91;68.02
32081;BME280;18593;51.426;7.030;2023-03-21T06:25:23;100466.53;;;10.92;68.07
32081;BME280;18593;51.426;7.030;2023-03-21T06:27:50;100468.38;;;10.92;68.02
32081;BME280;18593;51.426;7.030;2023-03-21T06:30:18;100457.72;;;10.92;68.23
32081;BME280;18593;51.426;7.030;2023-03-21T06:33:00;100462.22;;;10.91;68.33
32081;BME280;18593;51.426;7.030;2023-03-21T06:35:28;100465.72;;;10.92;68.46
32081;BME280;18593;51.426;7.030;2023-03-21T06:37:55;100463.66;;;10.94;68.55
32081;BME280;18593;51.426;7.030;2023-03-21T06:40:24;100464.47;;;10.94;69.11
32081;BME280;18593;51.426;7.030;2023-03-21T06:42:52;100462.63;;;10.95;69.28
32081;BME280;18593;51.426;7.030;2023-03-21T06:45:19;100452.78;;;10.95;69.10
32081;BME280;18593;51.426;7.030;2023-03-21T06:47:46;100455.22;;;10.97;69.25
32081;BME280;18593;51.426;7.030;2023-03-21T06:50:35;100456.25;;;10.96;69.03
32081;BME280;18593;51.426;7.030;2023-03-21T06:53:02;100449.06;;;10.96;69.08
32081;BME280;18593;51.426;7.030;2023-03-21T06:55:34;100441.88;;;10.97;69.31
32081;BME280;18593;51.426;7.030;2023-03-21T06:58:01;100447.22;;;10.97;69.65
32081;BME280;18593;51.426;7.030;2023-03-21T07:00:29;100448.84;;;10.98;69.52
32081;BME280;18593;51.426;7.030;2023-03-21T07:02:57;100454.78;;;11.00;69.66
32081;BME280;18593;51.426;7.030;2023-03-21T07:05:26;100453.97;;;10.99;69.66
32081;BME280;18593;51.426;7.030;2023-03-21T07:07:54;100456.66;;;10.99;69.75
32081;BME280;18593;51.426;7.030;2023-03-21T07:10:22;100447.59;;;11.00;69.50
32081;BME280;18593;51.426;7.030;2023-03-21T07:12:59;100464.22;;;11.02;69.95
32081;BME280;18593;51.426;7.030;2023-03-21T07:15:41;100467.91;;;11.01;69.82
32081;BME280;18593;51.426;7.030;2023-03-21T07:18:08;100467.91;;;11.01;69.21
32081;BME280;18593;51.426;7.030;2023-03-21T07:20:36;100469.56;;;11.02;69.20
32081;BME280;18593;51.426;7.030;2023-03-21T07:23:05;100471.63;;;11.00;69.62
32081;BME280;18593;51.426;7.030;2023-03-21T07:25:32;100466.06;;;11.02;69.88
32081;BME280;18593;51.426;7.030;2023-03-21T07:28:00;100466.28;;;11.00;69.80
32081;BME280;18593;51.426;7.030;2023-03-21T07:30:27;100474.88;;;11.02;69.89
32081;BME280;18593;51.426;7.030;2023-03-21T07:32:55;100479.63;;;11.00;69.59
32081;BME280;18593;51.426;7.030;2023-03-21T07:35:22;100478.81;;;11.00;69.66
32081;BME280;18593;51.426;7.030;2023-03-21T07:37:50;100467.75;;;10.96;69.90
32081;BME280;18593;51.426;7.030;2023-03-21T07:40:21;100472.50;;;10.94;70.17
32081;BME280;18593;51.426;7.030;2023-03-21T07:42:48;100469.84;;;10.88;70.41
32081;BME280;18593;51.426;7.030;2023-03-21T07:45:27;100470.88;;;10.87;70.58
32081;BME280;18593;51.426;7.030;2023-03-21T07:47:54;100473.53;;;10.87;71.07
32081;BME280;18593;51.426;7.030;2023-03-21T07:50:21;100472.31;;;10.89;70.69
32081;BME280;18593;51.426;7.030;2023-03-21T07:52:48;100457.31;;;10.88;70.77
32081;BME280;18593;51.426;7.030;2023-03-21T07:55:15;100464.09;;;10.91;70.32
32081;BME280;18593;51.426;7.030;2023-03-21T07:57:44;100458.97;;;10.89;70.71
32081;BME280;18593;51.426;7.030;2023-03-21T08:00:12;100458.34;;;10.87;71.05
32081;BME280;18593;51.426;7.030;2023-03-21T08:02:48;100462.06;;;10.86;70.90
32081;BME280;18593;51.426;7.030;2023-03-21T08:05:20;100461.41;;;10.91;70.71
32081;BME280;18593;51.426;7.030;2023-03-21T08:07:49;100460.19;;;10.93;70.74
32081;BME280;18593;51.426;7.030;2023-03-21T08:10:17;100456.03;;;10.97;70.57
32081;BME280;18593;51.426;7.030;2023-03-21T08:12:46;100460.72;;;11.02;70.64
32081;BME280;18593;51.426;7.030;2023-03-21T08:15:13;100463.78;;;11.05;71.12
32081;BME280;18593;51.426;7.030;2023-03-21T08:17:41;100460.72;;;11.08;70.77
32081;BME280;18593;51.426;7.030;2023-03-21T08:20:11;100456.34;;;11.14;71.03
32081;BME280;18593;51.426;7.030;2023-03-21T08:22:39;100461.69;;;11.14;71.09
32081;BME280;18593;51.426;7.030;2023-03-21T08:25:07;100459.63;;;11.16;71.15
32081;BME280;18593;51.426;7.030;2023-03-21T08:27:39;100454.91;;;11.18;71.31
32081;BME280;18593;51.426;7.030;2023-03-21T08:30:09;100451.19;;;11.19;71.59
32081;BME280;18593;51.426;7.030;2023-03-21T08:32:37;100452.59;;;11.22;72.05
32081;BME280;18593;51.426;7.030;2023-03-21T08:35:06;100443.34;;;11.24;72.39
32081;BME280;18593;51.426;7.030;2023-03-21T08:37:34;100459.97;;;11.26;72.07
32081;BME280;18593;51.426;7.030;2023-03-21T08:40:02;100451.53;;;11.29;72.11
32081;BME280;18593;51.426;7.030;2023-03-21T08:42:32;100454.41;;;11.28;72.44
32081;BME280;18593;51.426;7.030;2023-03-21T08:44:59;100463.25;;;11.28;72.37
32081;BME280;18593;51.426;7.030;2023-03-21T08:47:27;100460.13;;;11.31;72.08
32081;BME280;18593;51.426;7.030;2023-03-21T08:49:55;100470.38;;;11.34;72.53
32081;BME280;18593;51.426;7.030;2023-03-21T08:52:22;100471.44;;;11.33;72.67
32081;BME280;18593;51.426;7.030;2023-03-21T08:54:50;100468.53;;;11.35;72.78
32081;BME280;18593;51.426;7.030;2023-03-21T08:57:17;100473.28;;;11.33;73.03
32081;BME280;18593;51.426;7.030;2023-03-21T08:59:44;100466.09;;;11.33;73.42
32081;BME280;18593;51.426;7.030;2023-03-21T09:02:12;100466.09;;;11.33;73.34
32081;BME280;18593;51.426;7.030;2023-03-21T09:04:41;100469.78;;;11.32;73.39
32081;BME280;18593;51.426;7.030;2023-03-21T09:07:08;100465.03;;;11.34;73.52
32081;BME280;18593;51.426;7.030;2023-03-21T09:09:37;100466.47;;;11.37;73.71
32081;BME280;18593;51.426;7.030;2023-03-21T09:12:04;100468.69;;;11.40;74.04
32081;BME280;18593;51.426;7.030;2023-03-21T09:14:31;100465.00;;;11.41;74.48
32081;BME280;18593;51.426;7.030;2023-03-21T09:16:59;100458.47;;;11.37;74.49
32081;BME280;18593;51.426;7.030;2023-03-21T09:19:26;100463.59;;;11.39;74.57
32081;BME280;18593;51.426;7.030;2023-03-21T09:21:56;100466.09;;;11.33;74.56
32081;BME280;18593;51.426;7.030;2023-03-21T09:24:23;100468.75;;;11.33;74.90
32081;BME280;18593;51.426;7.030;2023-03-21T09:26:51;100458.66;;;11.35;75.05
32081;BME280;18593;51.426;7.030;2023-03-21T09:29:18;100459.69;;;11.34;75.78
32081;BME280;18593;51.426;7.030;2023-03-21T09:31:46;100464.47;;;11.32;76.15
32081;BME280;18593;51.426;7.030;2023-03-21T09:34:14;100455.19;;;11.35;76.60
32081;BME280;18593;51.426;7.030;2023-03-21T09:36:44;100460.09;;;11.38;76.20
32081;BME280;18593;51.426;7.030;2023-03-21T09:39:15;100455.34;;;11.40;75.89
32081;BME280;18593;51.426;7.030;2023-03-21T09:42:03;100450.00;;;11.40;76.60
32081;BME280;18593;51.426;7.030;2023-03-21T09:44:41;100460.25;;;11.43;76.21
32081;BME280;18593;51.426;7.030;2023-03-21T09:47:15;100454.47;;;11.46;76.11
32081;BME280;18593;51.426;7.030;2023-03-21T09:49:47;100455.91;;;11.49;76.05
32081;BME280;18593;51.426;7.030;2023-03-21T09:52:19;100462.66;;;11.51;76.53
32081;BME280;18593;51.426;7.030;2023-03-21T09:54:50;100457.69;;;11.55;76.07
32081;BME280;18593;51.426;7.030;2023-03-21T09:57:26;100456.66;;;11.56;76.03
32081;BME280;18593;51.426;7.030;2023-03-21T09:59:55;100463.66;;;11.57;75.82
32081;BME280;18593;51.426;7.030;2023-03-21T10:02:34;100456.47;;;11.57;75.90
32081;BME280;18593;51.426;7.030;2023-03-21T10:05:17;100455.19;;;11.60;75.60
32081;BME280;18593;51.426;7.030;2023-03-21T10:07:46;100452.91;;;11.64;75.33
32081;BME280;18593;51.426;7.030;2023-03-21T10:10:20;100451.63;;;11.66;74.99
32081;BME280;18593;51.426;7.030;2023-03-21T10:12:49;100445.72;;;11.64;75.11
32081;BME280;18593;51.426;7.030;2023-03-21T10:15:19;100445.47;;;11.66;74.71
32081;BME280;18593;51.426;7.030;2023-03-21T10:17:54;100440.75;;;11.68;74.83
32081;BME280;18593;51.426;7.030;2023-03-21T10:20:24;100441.56;;;11.68;73.89
32081;BME280;18593;51.426;7.030;2023-03-21T10:22:52;100440.94;;;11.66;73.79
32081;BME280;18593;51.426;7.030;2023-03-21T10:25:25;100440.38;;;11.64;73.64
32081;BME280;18593;51.426;7.030;2023-03-21T10:27:53;100433.78;;;11.67;73.26
32081;BME280;18593;51.426;7.030;2023-03-21T10:30:36;100443.19;;;11.69;73.41
32081;BME280;18593;51.426;7.030;2023-03-21T10:33:06;100434.13;;;11.70;73.67
32081;BME280;18593;51.426;7.030;2023-03-21T10:35:34;100437.84;;;11.69;72.97
32081;BME280;18593;51.426;7.030;2023-03-21T10:38:02;100429.41;;;11.72;73.10
32081;BME280;18593;51.426;7.030;2023-03-21T10:40:32;100423.44;;;11.70;73.21
32081;BME280;18593;51.426;7.030;2023-03-21T10:43:15;100422.22;;;11.73;73.45
32081;BME280;18593;51.426;7.030;2023-03-21T10:45:44;100415.00;;;11.73;73.38
32081;BME280;18593;51.426;7.030;2023-03-21T10:48:12;100403.28;;;11.74;73.26
32081;BME280;18593;51.426;7.030;2023-03-21T10:50:39;100401.81;;;11.78;73.40
32081;BME280;18593;51.426;7.030;2023-03-21T10:53:13;100395.41;;;11.79;73.95
32081;BME280;18593;51.426;7.030;2023-03-21T10:55:44;100394.38;;;11.80;73.88
32081;BME280;18593;51.426;7.030;2023-03-21T10:58:14;100389.25;;;11.79;73.73
32081;BME280;18593;51.426;7.030;2023-03-21T11:00:43;100383.34;;;11.77;74.14
32081;BME280;18593;51.426;7.030;2023-03-21T11:03:18;100383.09;;;11.78;74.23
32081;BME280;18593;51.426;7.030;2023-03-21T11:05:47;100382.25;;;11.84;74.38
32081;BME280;18593;51.426;7.030;2023-03-21T11:08:16;100367.84;;;11.85;74.19
32081;BME280;18593;51.426;7.030;2023-03-21T11:10:51;100364.50;;;11.90;74.05
32081;BME280;18593;51.426;7.030;2023-03-21T11:13:22;100356.28;;;11.92;74.04
32081;BME280;18593;51.426;7.030;2023-03-21T11:15:53;100346.41;;;11.92;74.15
32081;BME280;18593;51.426;7.030;2023-03-21T11:18:21;100346.16;;;11.94;74.29
32081;BME280;18593;51.426;7.030;2023-03-21T11:20:50;100345.13;;;11.95;73.99
32081;BME280;18593;51.426;7.030;2023-03-21T11:23:18;100352.72;;;11.98;74.07
32081;BME280;18593;51.426;7.030;2023-03-21T11:25:48;100344.44;;;11.99;73.96
32081;BME280;18593;51.426;7.030;2023-03-21T11:28:17;100336.00;;;12.02;73.69
32081;BME280;18593;51.426;7.030;2023-03-21T11:30:51;100336.00;;;12.02;73.32
32081;BME280;18593;51.426;7.030;2023-03-21T11:33:21;100343.88;;;11.97;72.34
32081;BME280;18593;51.426;7.030;2023-03-21T11:35:59;100342.41;;;12.01;72.52
32081;BME280;18593;51.426;7.030;2023-03-21T11:38:28;100343.78;;;12.04;73.69
32081;BME280;18593;51.426;7.030;2023-03-21T11:40:59;100341.72;;;12.06;72.63
32081;BME280;18593;51.426;7.030;2023-03-21T11:43:29;100329.53;;;12.10;72.69
32081;BME280;18593;51.426;7.030;2023-03-21T11:45:57;100334.44;;;12.13;72.39
32081;BME280;18593;51.426;7.030;2023-03-21T11:48:25;100336.06;;;12.14;71.03
32081;BME280;18593;51.426;7.030;2023-03-21T11:50:58;100326.41;;;12.13;70.28
32081;BME280;18593;51.426;7.030;2023-03-21T11:53:36;100325.97;;;12.16;70.27
32081;BME280;18593;51.426;7.030;2023-03-21T11:56:19;100327.72;;;12.22;70.35
32081;BME280;18593;51.426;7.030;2023-03-21T11:59:06;100324.16;;;12.28;71.00
32081;BME280;18593;51.426;7.030;2023-03-21T12:01:45;100317.88;;;12.34;70.86
32081;BME280;18593;51.426;7.030;2023-03-21T12:06:44;100319.69;;;12.41;69.98
32081;BME280;18593;51.426;7.030;2023-03-21T12:09:34;100317.59;;;12.43;69.48
32081;BME280;18593;51.426;7.030;2023-03-21T12:12:12;100315.50;;;12.45;69.14
32081;BME280;18593;51.426;7.030;2023-03-21T12:14:48;100322.69;;;12.44;67.97
32081;BME280;18593;51.426;7.030;2023-03-21T12:17:26;100315.50;;;12.45;67.49
32081;BME280;18593;51.426;7.030;2023-03-21T12:20:13;100307.34;;;12.40;67.02
32081;BME280;18593;51.426;7.030;2023-03-21T12:22:49;100317.81;;;12.41;68.08
32081;BME280;18593;51.426;7.030;2023-03-21T12:25:20;100317.59;;;12.43;67.72
32081;BME280;18593;51.426;7.030;2023-03-21T12:27:57;100324.34;;;12.45;67.23
32081;BME280;18593;51.426;7.030;2023-03-21T12:30:32;100309.94;;;12.46;67.71
32081;BME280;18593;51.426;7.030;2023-03-21T12:33:12;100305.41;;;12.47;67.59
32081;BME280;18593;51.426;7.030;2023-03-21T12:35:49;100299.00;;;12.48;67.13
32081;BME280;18593;51.426;7.030;2023-03-21T12:38:22;100300.28;;;12.45;66.67
32081;BME280;18593;51.426;7.030;2023-03-21T12:40:59;100299.34;;;12.40;66.25
32081;BME280;18593;51.426;7.030;2023-03-21T12:43:43;100298.50;;;12.39;67.30
32081;BME280;18593;51.426;7.030;2023-03-21T12:46:15;100306.31;;;12.41;67.87
32081;BME280;18593;51.426;7.030;2023-03-21T12:48:47;100307.69;;;12.43;68.69
32081;BME280;18593;51.426;7.030;2023-03-21T12:51:17;100305.03;;;12.43;69.03
32081;BME280;18593;51.426;7.030;2023-03-21T12:53:56;100302.16;;;12.45;69.75
32081;BME280;18593;51.426;7.030;2023-03-21T12:56:27;100296.78;;;12.45;69.67
32081;BME280;18593;51.426;7.030;2023-03-21T12:59:00;100297.81;;;12.44;69.68
32081;BME280;18593;51.426;7.030;2023-03-21T13:01:28;100285.72;;;12.41;69.54
32081;BME280;18593;51.426;7.030;2023-03-21T13:04:07;100275.03;;;12.41;70.21
32081;BME280;18593;51.426;7.030;2023-03-21T13:06:35;100270.50;;;12.42;70.31
32081;BME280;18593;51.426;7.030;2023-03-21T13:09:06;100270.03;;;12.45;70.15
32081;BME280;18593;51.426;7.030;2023-03-21T13:11:36;100273.97;;;12.42;69.32
32081;BME280;18593;51.426;7.030;2023-03-21T13:14:10;100260.22;;;12.38;68.80
32081;BME280;18593;51.426;7.030;2023-03-21T13:16:40;100253.03;;;12.39;69.27
32081;BME280;18593;51.426;7.030;2023-03-21T13:19:17;100254.69;;;12.40;69.01
32081;BME280;18593;51.426;7.030;2023-03-21T13:21:49;100255.94;;;12.37;68.10
32081;BME280;18593;51.426;7.030;2023-03-21T13:24:23;100244.53;;;12.30;67.78